Time;durP1;ratioP1;P1;durP2;ratioP2;P2;SDS_P1;SDS_P2;PMS_P1;PMS_P2;Temp;Humidity;BMP_temperature;BMP_pressure;BME280_temperature;BME280_humidity;BME280_pressure;Samples;Min_cycle;Max_cycle;Signal;HPM_P1;HPM_P2
2021/08/29 00:00:20;;;;;;;;;4.25;3.00;;;;;18.73;58.72;101911.38;5065074;28;46201;-85
2021/08/29 00:02:46;;;;;;;;;4.50;4.50;;;;;18.74;59.23;101912.25;5065067;28;45252;-84
2021/08/29 00:05:12;;;;;;;;;6.50;5.75;;;;;18.73;59.17;101908.75;5060825;28;45312;-84
2021/08/29 00:07:37;;;;;;;;;5.00;4.00;;;;;18.72;59.16;101904.34;5041451;28;45508;-84
2021/08/29 00:10:04;;;;;;;;;9.00;6.00;;;;;18.70;59.27;101906.03;5058999;28;45260;-85
2021/08/29 00:12:30;;;;;;;;;6.00;5.00;;;;;18.70;59.15;101900.78;5059134;28;45305;-85
2021/08/29 00:14:56;;;;;;;;;4.75;4.75;;;;;18.71;59.38;101905.19;5058964;28;45449;-84
2021/08/29 00:17:21;;;;;;;;;5.25;4.50;;;;;18.70;59.54;101906.03;5059716;28;45513;-83
2021/08/29 00:19:47;;;;;;;;;7.25;4.50;;;;;18.62;59.46;101904.94;5059187;28;45447;-84
2021/08/29 00:22:13;;;;;;;;;5.00;3.25;;;;;18.58;59.67;101893.44;5058905;28;45422;-83
2021/08/29 00:24:38;;;;;;;;;6.50;4.25;;;;;18.58;59.88;101896.06;5059026;28;45470;-84
2021/08/29 00:27:04;;;;;;;;;5.50;5.00;;;;;18.55;60.00;101899.47;5059259;28;45287;-85
2021/08/29 00:29:30;;;;;;;;;6.25;5.00;;;;;18.56;59.77;101889.91;5066590;28;45341;-85
2021/08/29 00:31:56;;;;;;;;;5.75;5.75;;;;;18.55;59.76;101889.00;5064469;28;45343;-85
2021/08/29 00:34:21;;;;;;;;;3.50;3.50;;;;;18.51;59.87;101886.25;5061787;28;45238;-85
2021/08/29 00:36:47;;;;;;;;;4.00;4.00;;;;;18.51;60.02;101888.84;5059185;28;45316;-85
2021/08/29 00:39:13;;;;;;;;;4.00;4.00;;;;;18.52;59.91;101890.66;5058614;28;45442;-85
2021/08/29 00:41:41;;;;;;;;;7.25;3.50;;;;;18.51;60.25;101889.78;5057424;28;45446;-85
2021/08/29 00:44:06;;;;;;;;;4.50;4.00;;;;;18.52;60.06;101890.66;5058689;28;45350;-85
2021/08/29 00:46:33;;;;;;;;;6.75;4.50;;;;;18.48;60.31;101888.75;5058984;28;45386;-85
2021/08/29 00:48:59;;;;;;;;;4.00;4.00;;;;;18.45;60.39;101891.31;5058800;28;45503;-85
2021/08/29 00:51:25;;;;;;;;;4.50;4.00;;;;;18.44;60.38;101887.78;5061046;28;45341;-85
2021/08/29 00:53:55;;;;;;;;;4.00;4.00;;;;;18.42;60.46;101884.22;5044912;28;45415;-85
2021/08/29 00:56:21;;;;;;;;;4.25;4.25;;;;;18.39;60.64;101879.78;5062758;28;45311;-85
2021/08/29 00:58:49;;;;;;;;;5.25;3.50;;;;;18.36;60.58;101879.69;5066394;28;45409;-85
2021/08/29 01:01:36;;;;;;;;;4.25;4.00;;;;;18.36;60.85;101882.31;5044794;28;45383;-85
2021/08/29 01:04:07;;;;;;;;;6.00;4.50;;;;;18.35;60.50;101880.56;5058315;28;45292;-85
2021/08/29 01:06:44;;;;;;;;;5.75;3.50;;;;;18.36;60.79;101878.81;5058903;28;45292;-84
2021/08/29 01:09:12;;;;;;;;;7.00;4.00;;;;;18.36;60.89;101882.31;5058080;28;45406;-85
2021/08/29 01:11:43;;;;;;;;;6.25;5.25;;;;;18.36;60.80;101886.69;5058317;28;45420;-84
2021/08/29 01:14:12;;;;;;;;;6.75;3.75;;;;;18.34;60.97;101891.88;5058110;28;45406;-84
2021/08/29 01:16:39;;;;;;;;;6.00;5.00;;;;;18.31;60.88;101885.63;5059267;28;45507;-84
2021/08/29 01:19:14;;;;;;;;;5.75;4.50;;;;;18.27;60.84;101883.78;5058039;28;46330;-84
2021/08/29 01:21:42;;;;;;;;;7.50;6.00;;;;;18.21;61.03;101890.59;5058131;28;45719;-84
2021/08/29 01:24:12;;;;;;;;;4.50;3.00;;;;;18.24;61.36;101887.22;5059807;28;46132;-84
2021/08/29 01:26:43;;;;;;;;;6.25;4.50;;;;;18.28;61.25;101890.81;5063789;28;45387;-83
2021/08/29 01:29:12;;;;;;;;;3.25;3.25;;;;;18.31;61.03;101888.25;5062375;28;45505;-83
2021/08/29 01:31:40;;;;;;;;;5.25;4.75;;;;;18.32;61.32;101890.94;5070128;28;45297;-85
2021/08/29 01:34:12;;;;;;;;;3.50;2.75;;;;;18.35;60.84;101884.91;5042194;28;45296;-85
2021/08/29 01:36:41;;;;;;;;;4.00;3.75;;;;;18.39;60.93;101894.66;5058316;28;45269;-85
2021/08/29 01:39:07;;;;;;;;;7.25;5.75;;;;;18.39;60.98;101886.78;5057569;28;45381;-85
2021/08/29 01:41:35;;;;;;;;;4.50;4.25;;;;;18.39;61.40;101884.16;5057660;28;45371;-85
2021/08/29 01:44:02;;;;;;;;;9.50;5.25;;;;;18.37;61.29;101884.09;5057540;28;45297;-85
2021/08/29 01:46:29;;;;;;;;;5.50;4.25;;;;;18.35;61.12;101885.81;5058093;28;45570;-85
2021/08/29 01:48:55;;;;;;;;;5.75;4.00;;;;;18.33;61.30;101878.72;5039611;28;46590;-85
2021/08/29 01:51:21;;;;;;;;;6.75;6.75;;;;;18.31;60.91;101878.69;5057975;28;45402;-85
2021/08/29 01:53:46;;;;;;;;;5.75;5.25;;;;;18.30;61.11;101879.50;5061584;28;45228;-86
2021/08/29 01:56:12;;;;;;;;;4.25;4.25;;;;;18.26;61.05;101880.25;5065528;28;45408;-85
2021/08/29 01:58:38;;;;;;;;;7.25;5.50;;;;;18.23;61.48;101886.31;5062369;28;46261;-86
2021/08/29 02:01:09;;;;;;;;;6.25;5.25;;;;;18.22;61.64;101878.41;5059659;28;45294;-85
2021/08/29 02:03:35;;;;;;;;;6.50;6.25;;;;;18.17;61.35;101886.13;5057068;28;45247;-85
2021/08/29 02:06:07;;;;;;;;;6.50;4.25;;;;;18.14;61.70;101882.53;5057494;28;45335;-85
2021/08/29 02:08:36;;;;;;;;;6.25;5.75;;;;;18.12;61.94;101889.44;5057571;28;46072;-85
2021/08/29 02:11:05;;;;;;;;;8.00;6.00;;;;;18.07;62.04;101894.56;5055785;28;45376;-85
2021/08/29 02:13:34;;;;;;;;;7.25;5.25;;;;;18.03;61.73;101892.66;5057484;28;45395;-85
2021/08/29 02:16:06;;;;;;;;;5.75;5.75;;;;;17.98;62.13;101892.53;5057605;28;45337;-85
2021/08/29 02:18:34;;;;;;;;;7.00;5.75;;;;;17.98;61.96;101903.00;5057436;28;45403;-85
2021/08/29 02:21:01;;;;;;;;;6.50;4.75;;;;;17.99;62.34;101904.78;5057037;28;45745;-85
2021/08/29 02:23:29;;;;;;;;;10.50;8.00;;;;;18.01;62.40;101902.19;5057335;28;45355;-85
2021/08/29 02:25:56;;;;;;;;;10.00;8.25;;;;;18.01;62.04;101900.50;5059755;28;45730;-85
2021/08/29 02:28:24;;;;;;;;;6.75;6.75;;;;;18.05;62.25;101901.47;5063904;28;45394;-83
2021/08/29 02:30:50;;;;;;;;;5.00;5.00;;;;;18.10;61.99;101899.88;5062167;28;45257;-85
2021/08/29 02:33:16;;;;;;;;;8.00;6.00;;;;;18.11;62.17;101906.88;5061454;28;45409;-82
2021/08/29 02:35:43;;;;;;;;;9.50;6.25;;;;;18.13;62.11;101904.34;5057812;28;45322;-83
2021/08/29 02:38:09;;;;;;;;;7.75;7.75;;;;;18.10;62.51;101902.50;5057364;28;45900;-84
2021/08/29 02:40:39;;;;;;;;;5.75;5.25;;;;;18.09;62.07;101901.63;5057032;28;45252;-84
2021/08/29 02:43:07;;;;;;;;;7.25;6.00;;;;;18.03;62.21;101897.91;5056984;28;45230;-85
2021/08/29 02:45:34;;;;;;;;;7.00;6.75;;;;;17.96;62.44;101894.16;5057279;28;45359;-83
2021/08/29 02:48:01;;;;;;;;;10.50;8.25;;;;;17.91;62.20;101891.41;5056400;28;45945;-85
2021/08/29 02:50:27;;;;;;;;;8.00;5.25;;;;;17.90;62.62;101893.97;5056689;28;45280;-84
2021/08/29 02:52:53;;;;;;;;;6.75;6.75;;;;;17.88;62.71;101883.44;5064767;28;45296;-84
2021/08/29 02:55:19;;;;;;;;;8.75;7.00;;;;;17.85;62.36;101885.97;5042467;28;45660;-83
2021/08/29 02:57:46;;;;;;;;;7.00;7.00;;;;;17.79;63.33;101888.38;5057069;28;45299;-84
2021/08/29 03:00:13;;;;;;;;;10.25;7.75;;;;;17.74;63.02;101887.34;5056146;28;45346;-83
2021/08/29 03:02:41;;;;;;;;;11.25;8.50;;;;;17.67;63.31;101895.84;5056541;28;45380;-84
2021/08/29 03:05:08;;;;;;;;;9.75;7.00;;;;;17.65;63.56;101890.56;5056915;28;45265;-84
2021/08/29 03:07:34;;;;;;;;;13.75;6.75;;;;;17.63;63.74;101887.00;5056387;28;46124;-83
2021/08/29 03:10:00;;;;;;;;;5.50;5.00;;;;;17.60;63.67;101887.78;5056351;28;45383;-83
2021/08/29 03:12:26;;;;;;;;;8.00;5.75;;;;;17.62;63.36;101893.06;5056965;28;45354;-83
2021/08/29 03:14:52;;;;;;;;;8.50;7.00;;;;;17.59;63.74;101886.00;5058881;28;45261;-85
2021/08/29 03:17:19;;;;;;;;;7.00;6.75;;;;;17.56;63.79;101885.91;5056514;28;45486;-85
2021/08/29 03:19:45;;;;;;;;;10.25;8.50;;;;;17.54;63.91;101894.53;5038968;28;45511;-85
2021/08/29 03:22:12;;;;;;;;;8.25;8.25;;;;;17.52;64.00;101880.50;5064846;28;45185;-85
2021/08/29 03:24:37;;;;;;;;;9.75;5.75;;;;;17.51;63.99;101874.41;5060082;28;45309;-85
2021/08/29 03:27:03;;;;;;;;;10.25;8.25;;;;;17.50;63.95;101880.47;5057026;28;45985;-85
2021/08/29 03:29:29;;;;;;;;;8.00;7.75;;;;;17.48;63.85;101875.19;5056283;28;45648;-85
2021/08/29 03:31:58;;;;;;;;;12.75;11.00;;;;;17.48;64.23;101869.94;5056104;28;45236;-85
2021/08/29 03:34:24;;;;;;;;;10.25;7.00;;;;;17.49;64.28;101874.31;5056429;28;45457;-85
2021/08/29 03:36:50;;;;;;;;;7.25;6.25;;;;;17.48;63.86;101874.28;5056524;28;45412;-85
2021/08/29 03:39:16;;;;;;;;;8.00;6.00;;;;;17.54;63.92;101873.59;5055913;28;45336;-86
2021/08/29 03:41:44;;;;;;;;;6.75;6.25;;;;;17.53;63.73;101874.44;5056260;28;45384;-85
2021/08/29 03:44:12;;;;;;;;;9.50;8.50;;;;;17.51;64.22;101877.00;5056643;28;45464;-85
2021/08/29 03:46:39;;;;;;;;;7.25;6.00;;;;;17.52;63.89;101865.69;5056194;28;45762;-85
2021/08/29 03:49:05;;;;;;;;;4.50;4.50;;;;;17.50;64.05;101870.00;5060602;28;45795;-85
2021/08/29 03:51:33;;;;;;;;;7.00;5.75;;;;;17.48;64.47;101869.03;5063893;28;45291;-85
2021/08/29 03:53:59;;;;;;;;;7.50;6.50;;;;;17.45;64.38;101867.22;5059253;28;45535;-86
2021/08/29 03:56:26;;;;;;;;;7.50;5.25;;;;;17.44;64.10;101861.94;5057641;28;45238;-84
2021/08/29 03:58:52;;;;;;;;;8.50;6.25;;;;;17.44;64.33;101861.94;5058067;28;45359;-83
2021/08/29 04:01:18;;;;;;;;;7.25;6.00;;;;;17.44;64.16;101873.28;5059094;28;45874;-84
2021/08/29 04:03:43;;;;;;;;;6.00;5.75;;;;;17.40;63.93;101862.66;5058570;28;45490;-84
2021/08/29 04:06:12;;;;;;;;;9.50;7.00;;;;;17.36;64.38;101866.91;5055337;28;46003;-85
2021/08/29 04:08:43;;;;;;;;;11.75;6.50;;;;;17.36;64.40;101866.91;5055725;28;45193;-85
2021/08/29 04:11:09;;;;;;;;;12.00;10.00;;;;;17.32;64.49;101870.25;5055818;28;45402;-84
2021/08/29 04:13:37;;;;;;;;;10.75;7.25;;;;;17.28;64.79;101871.88;5055865;28;45486;-85
2021/08/29 04:16:04;;;;;;;;;7.75;7.75;;;;;17.24;64.40;101867.38;5055628;28;46108;-84
2021/08/29 04:18:35;;;;;;;;;7.50;6.25;;;;;17.24;64.68;101871.72;5060563;28;45241;-85
2021/08/29 04:21:00;;;;;;;;;7.50;7.00;;;;;17.23;64.87;101875.19;5062693;28;45428;-85
2021/08/29 04:23:26;;;;;;;;;10.75;9.00;;;;;17.23;64.74;101870.81;5059744;28;45449;-84
2021/08/29 04:25:52;;;;;;;;;7.00;5.50;;;;;17.20;64.53;101867.22;5057661;28;45382;-85
2021/08/29 04:28:18;;;;;;;;;6.75;4.75;;;;;17.17;65.24;101866.28;5059891;28;45233;-85
2021/08/29 04:30:45;;;;;;;;;6.00;4.75;;;;;17.16;65.06;101871.47;5058898;28;45457;-83
2021/08/29 04:33:10;;;;;;;;;4.75;4.00;;;;;17.19;65.31;101863.72;5058882;28;45363;-84
2021/08/29 04:35:36;;;;;;;;;11.00;5.50;;;;;17.25;64.77;101874.38;5058511;28;45900;-83
2021/08/29 04:38:02;;;;;;;;;4.75;4.75;;;;;17.27;65.14;101872.72;5058316;28;45419;-83
2021/08/29 04:40:28;;;;;;;;;8.25;6.50;;;;;17.32;65.04;101865.94;5058659;28;45348;-84
2021/08/29 04:42:54;;;;;;;;;7.25;4.50;;;;;17.39;64.90;101876.59;5058743;28;45426;-83
2021/08/29 04:45:19;;;;;;;;;6.50;5.00;;;;;17.43;64.51;101868.91;5058895;28;45764;-84
2021/08/29 04:47:45;;;;;;;;;8.25;6.00;;;;;17.44;64.73;101869.81;5059367;28;45323;-85
2021/08/29 04:50:10;;;;;;;;;6.00;5.00;;;;;17.47;64.51;101860.31;5061818;28;45329;-83
2021/08/29 04:52:36;;;;;;;;;7.50;6.00;;;;;17.48;64.45;101866.44;5061032;28;45331;-84
2021/08/29 04:55:02;;;;;;;;;7.00;7.00;;;;;17.48;64.12;101875.19;5064297;28;46304;-84
2021/08/29 04:57:27;;;;;;;;;10.50;5.75;;;;;17.48;64.00;101877.81;5068629;28;44777;-83
2021/08/29 04:59:53;;;;;;;;;5.75;5.75;;;;;17.51;64.36;101874.41;5067287;28;45300;-84
2021/08/29 05:02:19;;;;;;;;;6.00;5.00;;;;;17.55;64.02;101881.50;5059779;28;45582;-86
2021/08/29 05:04:45;;;;;;;;;4.75;4.75;;;;;17.62;64.12;101874.72;5058703;28;45344;-86
2021/08/29 05:07:10;;;;;;;;;7.00;5.00;;;;;17.68;63.97;101879.28;5061163;28;45363;-83
2021/08/29 05:09:36;;;;;;;;;6.00;5.00;;;;;17.71;63.85;101876.78;5059077;28;45374;-85
2021/08/29 05:12:02;;;;;;;;;6.00;5.00;;;;;17.76;63.97;101883.06;5059017;28;45515;-85
2021/08/29 05:14:27;;;;;;;;;6.25;4.50;;;;;17.80;63.57;101884.91;5060372;28;45363;-85
2021/08/29 05:16:53;;;;;;;;;6.00;5.00;;;;;17.88;63.44;101887.78;5063762;28;45314;-83
2021/08/29 05:19:18;;;;;;;;;6.25;5.25;;;;;17.91;63.24;101890.53;5062392;28;45509;-83
2021/08/29 05:21:44;;;;;;;;;4.25;4.25;;;;;17.93;63.11;101891.44;5059393;28;45454;-83
2021/08/29 05:24:09;;;;;;;;;9.75;6.00;;;;;17.94;63.07;101888.88;5058265;28;46001;-83
2021/08/29 05:26:35;;;;;;;;;5.50;5.50;;;;;17.95;63.26;101893.28;5051634;28;45877;-83
2021/08/29 05:29:01;;;;;;;;;7.50;6.25;;;;;17.99;62.89;101894.31;5059988;28;45320;-83
2021/08/29 05:31:26;;;;;;;;;7.00;5.00;;;;;17.97;62.96;101888.13;5062789;28;45326;-83
2021/08/29 05:33:52;;;;;;;;;10.00;8.00;;;;;18.00;63.08;101889.94;5060498;28;45425;-83
2021/08/29 05:36:18;;;;;;;;;7.00;6.25;;;;;18.00;62.72;101890.84;5058296;28;45388;-83
2021/08/29 05:38:43;;;;;;;;;9.75;8.50;;;;;18.04;62.96;101891.81;5057891;28;45462;-83
2021/08/29 05:41:09;;;;;;;;;9.50;7.00;;;;;18.05;62.66;101890.97;5058463;28;45645;-84
2021/08/29 05:43:34;;;;;;;;;2.75;2.00;;;;;18.07;62.35;101884.06;5058832;28;45377;-83
2021/08/29 05:46:00;;;;;;;;;8.75;5.00;;;;;18.06;62.69;101883.16;5066496;28;45324;-83
2021/08/29 05:48:25;;;;;;;;;12.75;11.75;;;;;18.11;62.65;101888.53;5061734;28;45455;-83
2021/08/29 05:50:51;;;;;;;;;11.50;9.50;;;;;18.16;62.47;101888.69;5059221;28;45277;-83
2021/08/29 05:53:17;;;;;;;;;6.25;6.25;;;;;18.17;62.25;101885.22;5058196;28;46097;-83
2021/08/29 05:55:42;;;;;;;;;11.75;9.00;;;;;18.19;62.50;101880.91;5057818;28;45438;-83
2021/08/29 05:58:08;;;;;;;;;5.50;5.50;;;;;18.21;62.46;101884.50;5058080;28;45321;-83
2021/08/29 06:00:34;;;;;;;;;7.00;6.00;;;;;18.22;62.08;101883.66;5058133;28;45388;-83
2021/08/29 06:03:00;;;;;;;;;4.00;4.00;;;;;18.23;62.14;101877.56;5057617;28;46090;-83
2021/08/29 06:05:27;;;;;;;;;8.00;6.75;;;;;18.25;62.13;101878.47;5058099;28;45288;-83
2021/08/29 06:07:53;;;;;;;;;9.25;7.50;;;;;18.28;61.89;101881.19;5058210;28;45305;-83
2021/08/29 06:10:18;;;;;;;;;7.00;5.00;;;;;18.25;61.75;101884.63;5058303;28;45706;-83
2021/08/29 06:12:45;;;;;;;;;10.50;5.50;;;;;18.24;61.91;101882.84;5059131;28;45331;-83
2021/08/29 06:15:11;;;;;;;;;7.50;7.25;;;;;18.22;61.92;101876.66;5065663;28;45344;-82
2021/08/29 06:17:37;;;;;;;;;12.00;7.50;;;;;18.25;62.06;101888.97;5060380;28;45363;-83
2021/08/29 06:20:04;;;;;;;;;8.00;6.00;;;;;18.27;61.73;101882.03;5058784;28;45579;-83
2021/08/29 06:22:29;;;;;;;;;6.50;6.00;;;;;18.32;61.82;101876.94;5058118;28;45360;-83
2021/08/29 06:24:55;;;;;;;;;7.75;6.75;;;;;18.33;61.90;101887.47;5057551;28;45390;-83
2021/08/29 06:27:21;;;;;;;;;9.75;4.75;;;;;18.33;61.38;101882.25;5039435;28;45353;-82
2021/08/29 06:29:46;;;;;;;;;8.25;7.50;;;;;18.34;61.73;101889.28;5039482;28;45266;-82
2021/08/29 06:32:12;;;;;;;;;6.75;6.00;;;;;18.35;61.56;101882.28;5057211;28;45225;-82
2021/08/29 06:34:37;;;;;;;;;7.00;6.75;;;;;18.34;61.35;101880.50;5063537;28;45268;-83
2021/08/29 06:37:03;;;;;;;;;5.25;5.25;;;;;18.36;61.42;101884.06;5060765;28;45226;-84
2021/08/29 06:39:29;;;;;;;;;6.25;6.00;;;;;18.36;61.37;101881.44;5040401;28;45230;-85
2021/08/29 06:41:55;;;;;;;;;8.25;5.75;;;;;18.39;61.16;101890.28;5061997;28;45235;-84
2021/08/29 06:44:20;;;;;;;;;5.50;5.00;;;;;18.42;61.14;101886.84;5068186;28;45286;-84
2021/08/29 06:46:46;;;;;;;;;9.25;6.00;;;;;18.43;61.29;101893.88;5062457;28;45416;-86
2021/08/29 06:49:11;;;;;;;;;6.25;6.25;;;;;18.43;61.12;101898.25;5040203;28;45513;-84
2021/08/29 06:51:37;;;;;;;;;7.25;7.25;;;;;18.43;61.25;101891.25;5062586;28;45493;-84
2021/08/29 06:54:03;;;;;;;;;6.00;6.00;;;;;18.47;61.00;101892.22;5064508;28;45334;-82
2021/08/29 06:56:28;;;;;;;;;6.50;6.50;;;;;18.45;60.88;101893.94;5064021;28;45345;-83
2021/08/29 06:58:54;;;;;;;;;9.25;7.00;;;;;18.41;61.09;101888.59;5063601;28;45313;-84
2021/08/29 07:01:20;;;;;;;;;5.50;5.50;;;;;18.41;61.20;101896.47;5058679;28;46188;-84
2021/08/29 07:03:45;;;;;;;;;6.75;6.75;;;;;18.44;61.05;101890.41;5059186;28;45396;-84
2021/08/29 07:06:11;;;;;;;;;5.00;5.00;;;;;18.47;60.85;101894.84;5059379;28;45297;-84
2021/08/29 07:08:36;;;;;;;;;8.50;8.00;;;;;18.49;60.89;101888.81;5060678;28;45451;-84
2021/08/29 07:11:02;;;;;;;;;9.50;5.75;;;;;18.45;60.75;101892.19;5045559;28;47575;-83
2021/08/29 07:13:28;;;;;;;;;6.00;5.50;;;;;18.46;61.01;101890.47;5063965;28;45264;-84
2021/08/29 07:15:54;;;;;;;;;7.50;7.25;;;;;18.47;60.78;101893.13;5060756;28;45232;-83
2021/08/29 07:18:20;;;;;;;;;6.75;5.00;;;;;18.47;60.86;101901.00;5058636;28;45232;-85
2021/08/29 07:20:45;;;;;;;;;7.00;5.75;;;;;18.50;60.66;101892.31;5057263;28;45990;-86
2021/08/29 07:23:11;;;;;;;;;8.50;6.00;;;;;18.50;60.68;101900.19;5057261;28;45371;-84
2021/08/29 07:25:36;;;;;;;;;8.25;8.25;;;;;18.49;60.53;101890.53;5057987;28;45347;-85
2021/08/29 07:28:03;;;;;;;;;10.75;8.50;;;;;18.50;60.82;101890.59;5057506;28;45336;-86
2021/08/29 07:30:29;;;;;;;;;11.00;11.00;;;;;18.58;60.74;101893.44;5059050;28;45397;-85
2021/08/29 07:32:55;;;;;;;;;10.25;8.50;;;;;18.61;60.36;101885.66;5057746;28;45348;-86
2021/08/29 07:35:20;;;;;;;;;6.75;6.00;;;;;18.63;60.35;101890.94;5058279;28;45416;-85
2021/08/29 07:37:46;;;;;;;;;8.25;6.50;;;;;18.65;60.12;101894.50;5059199;28;45338;-86
2021/08/29 07:40:12;;;;;;;;;7.25;7.25;;;;;18.67;60.10;101883.22;5062886;28;46100;-85
2021/08/29 07:42:38;;;;;;;;;8.25;7.00;;;;;18.68;60.43;101879.72;5061645;28;45255;-86
2021/08/29 07:45:04;;;;;;;;;6.00;5.00;;;;;18.73;60.05;101887.75;5058560;28;45185;-84
2021/08/29 07:47:31;;;;;;;;;7.50;6.00;;;;;18.77;60.09;101886.97;5057939;28;45252;-86
2021/08/29 07:49:57;;;;;;;;;6.75;6.75;;;;;18.81;59.80;101893.19;5056795;28;46089;-84
2021/08/29 07:52:22;;;;;;;;;9.50;5.75;;;;;18.85;59.91;101890.72;5038532;28;45432;-84
2021/08/29 07:54:48;;;;;;;;;7.75;5.00;;;;;18.93;59.51;101893.59;5057260;28;45372;-84
2021/08/29 07:57:13;;;;;;;;;7.50;6.25;;;;;18.96;59.86;101896.31;5056503;28;45316;-84
2021/08/29 07:59:39;;;;;;;;;5.00;5.00;;;;;18.99;59.61;101888.53;5056181;28;45715;-84
2021/08/29 08:02:05;;;;;;;;;6.75;5.50;;;;;18.98;59.58;101891.09;5059620;28;45364;-84
2021/08/29 08:04:31;;;;;;;;;8.75;4.75;;;;;19.03;59.46;101894.75;5060140;28;45471;-84
2021/08/29 08:06:56;;;;;;;;;4.00;4.00;;;;;19.10;59.19;101888.78;5060318;28;45518;-83
2021/08/29 08:09:22;;;;;;;;;7.00;4.00;;;;;19.11;59.17;101893.19;5067355;28;45370;-83
2021/08/29 08:11:48;;;;;;;;;7.50;5.25;;;;;19.13;58.60;101893.22;5065200;28;45217;-84
2021/08/29 08:14:13;;;;;;;;;6.00;5.50;;;;;19.14;58.72;101895.00;5064999;28;45345;-82
2021/08/29 08:16:39;;;;;;;;;6.00;4.00;;;;;19.14;58.26;101889.75;5063940;28;45880;-85
2021/08/29 08:19:05;;;;;;;;;3.25;2.00;;;;;19.20;58.25;101894.28;5067091;28;45804;-85
2021/08/29 08:21:30;;;;;;;;;5.50;5.50;;;;;19.22;58.59;101896.09;5066825;28;45312;-84
2021/08/29 08:23:56;;;;;;;;;6.00;4.00;;;;;19.23;57.98;101894.38;5065952;28;45336;-83
2021/08/29 08:26:22;;;;;;;;;5.00;4.00;;;;;19.21;57.95;101901.31;5060759;28;45408;-84
2021/08/29 08:28:47;;;;;;;;;4.75;3.25;;;;;19.20;58.07;101895.19;5041469;28;45459;-83
2021/08/29 08:31:13;;;;;;;;;4.25;4.25;;;;;19.22;57.82;101896.09;5069687;28;44735;-83
2021/08/29 08:33:38;;;;;;;;;4.75;4.75;;;;;19.29;58.31;101889.28;5059985;28;45353;-84
2021/08/29 08:36:04;;;;;;;;;8.00;6.00;;;;;19.40;57.97;101885.19;5062218;28;45407;-83
2021/08/29 08:38:30;;;;;;;;;7.25;6.00;;;;;19.50;58.45;101891.56;5066810;28;46561;-83
2021/08/29 08:40:55;;;;;;;;;8.00;7.25;;;;;19.62;57.76;101890.97;5061760;28;45372;-84
2021/08/29 08:43:21;;;;;;;;;6.00;4.75;;;;;19.70;57.88;101885.91;5059602;28;45238;-83
2021/08/29 08:45:47;;;;;;;;;5.00;5.00;;;;;19.75;57.13;101894.81;5059654;28;45446;-85
2021/08/29 08:48:14;;;;;;;;;5.50;4.00;;;;;19.75;57.16;101893.06;5059852;28;45474;-85
2021/08/29 08:50:45;;;;;;;;;3.00;2.25;;;;;19.75;56.33;101893.06;5040799;28;45735;-84
2021/08/29 08:53:14;;;;;;;;;10.00;9.00;;;;;19.77;56.46;101896.63;5058921;28;45313;-84
2021/08/29 08:55:40;;;;;;;;;6.00;4.25;;;;;19.84;56.93;101891.50;5059029;28;45470;-85
2021/08/29 08:58:08;;;;;;;;;5.25;5.25;;;;;19.88;56.09;101893.41;5059374;28;45394;-85
2021/08/29 09:00:34;;;;;;;;;9.00;8.00;;;;;19.95;56.45;101893.59;5059435;28;45307;-85
2021/08/29 09:03:01;;;;;;;;;9.00;7.75;;;;;20.05;55.48;101893.78;5059097;28;45383;-85
2021/08/29 09:05:27;;;;;;;;;4.00;4.00;;;;;20.10;56.15;101894.78;5063535;28;45170;-85
2021/08/29 09:07:53;;;;;;;;;5.25;5.00;;;;;20.15;56.13;101894.88;5064218;28;45478;-83
2021/08/29 09:10:18;;;;;;;;;2.50;2.50;;;;;20.22;55.31;101894.19;5064671;28;45314;-87
2021/08/29 09:13:03;;;;;;;;;2.25;2.25;;;;;20.24;54.72;101888.09;5059148;28;45303;-87
2021/08/29 09:15:30;;;;;;;;;3.75;2.00;;;;;20.30;55.06;101886.47;5040978;28;45432;-85
2021/08/29 09:17:56;;;;;;;;;3.25;3.25;;;;;20.31;55.25;101886.47;5058863;28;45427;-85
2021/08/29 09:20:29;;;;;;;;;5.25;4.50;;;;;20.35;54.46;101883.06;5058422;28;45457;-83
2021/08/29 09:23:04;;;;;;;;;5.00;5.00;;;;;20.35;54.86;101885.72;5058923;28;45353;-85
2021/08/29 09:25:39;;;;;;;;;6.25;4.00;;;;;20.38;54.24;101883.13;5058535;28;45228;-84
2021/08/29 09:28:10;;;;;;;;;5.00;4.00;;;;;20.46;54.10;101885.06;5058296;28;46738;-83
2021/08/29 09:30:45;;;;;;;;;4.50;4.50;;;;;20.53;54.00;101890.44;5059005;28;45675;-83
2021/08/29 09:33:11;;;;;;;;;3.75;2.75;;;;;20.56;54.28;101889.66;5059483;28;45278;-83
2021/08/29 09:35:37;;;;;;;;;7.75;5.25;;;;;20.59;53.94;101887.06;5065852;28;45253;-83
2021/08/29 09:38:06;;;;;;;;;3.00;3.00;;;;;20.61;53.78;101882.72;5065332;28;45182;-84
2021/08/29 09:40:34;;;;;;;;;3.75;3.00;;;;;20.65;53.52;101879.31;5042791;28;45396;-83
2021/08/29 09:43:02;;;;;;;;;5.00;4.25;;;;;20.70;53.47;101879.41;5060005;28;45275;-83
2021/08/29 09:45:36;;;;;;;;;4.25;4.25;;;;;20.71;53.90;101868.88;5058352;28;45490;-83
2021/08/29 09:48:10;;;;;;;;;7.00;4.50;;;;;20.80;53.99;101878.75;5058983;28;45291;-83
2021/08/29 09:50:38;;;;;;;;;4.75;3.50;;;;;20.84;52.63;101875.31;5040522;28;45396;-81
2021/08/29 09:53:15;;;;;;;;;3.00;3.00;;;;;20.83;53.15;101878.81;5060610;28;45239;-83
2021/08/29 09:55:44;;;;;;;;;7.50;4.25;;;;;20.80;52.79;101876.13;5058410;28;45427;-82
2021/08/29 09:58:23;;;;;;;;;5.75;5.75;;;;;20.78;52.93;101875.19;5057732;28;46166;-83
2021/08/29 10:01:13;;;;;;;;;6.00;5.75;;;;;20.68;53.37;101868.81;5057599;28;45691;-82
2021/08/29 10:03:43;;;;;;;;;6.75;6.50;;;;;20.63;53.45;101870.47;5064390;28;45264;-82
2021/08/29 10:06:29;;;;;;;;;6.50;5.25;;;;;20.53;53.52;101879.91;5041909;28;45321;-82
2021/08/29 10:08:57;;;;;;;;;8.25;5.50;;;;;20.46;53.42;101880.66;5057965;28;46008;-83
2021/08/29 10:11:24;;;;;;;;;5.50;5.50;;;;;20.49;53.67;101875.47;5058122;28;45357;-84
2021/08/29 10:13:52;;;;;;;;;12.25;7.50;;;;;20.57;53.98;101873.88;5057008;28;45361;-83
2021/08/29 10:16:19;;;;;;;;;9.25;8.00;;;;;20.66;54.10;101874.91;5057916;28;45371;-83
2021/08/29 10:18:54;;;;;;;;;5.75;5.75;;;;;20.78;54.11;101872.56;5039712;28;46311;-82
2021/08/29 10:21:22;;;;;;;;;8.00;6.00;;;;;20.94;53.52;101870.25;5057353;28;45273;-82
2021/08/29 10:23:52;;;;;;;;;8.00;6.50;;;;;21.01;53.02;101875.63;5056429;28;45394;-82
2021/08/29 10:26:23;;;;;;;;;10.50;7.50;;;;;21.00;53.04;101873.84;5057803;28;45226;-82
2021/08/29 10:29:07;;;;;;;;;8.75;8.00;;;;;21.09;53.45;101859.97;5057632;28;46306;-82
2021/08/29 10:31:41;;;;;;;;;7.00;7.00;;;;;21.17;53.40;101865.38;5044052;28;45691;-82
2021/08/29 10:34:08;;;;;;;;;11.25;10.25;;;;;21.21;53.39;101868.94;5058118;28;45316;-82
2021/08/29 10:36:35;;;;;;;;;7.50;6.50;;;;;21.30;52.17;101869.09;5057933;28;45390;-82
2021/08/29 10:39:02;;;;;;;;;7.25;6.50;;;;;21.34;52.33;101865.69;5057040;28;45466;-83
2021/08/29 10:41:28;;;;;;;;;6.00;6.00;;;;;21.31;52.65;101869.16;5057347;28;45247;-83
2021/08/29 10:43:54;;;;;;;;;11.25;7.00;;;;;21.35;52.62;101862.19;5057206;28;45240;-85
2021/08/29 10:46:20;;;;;;;;;6.00;6.00;;;;;21.42;52.06;101863.19;5038824;28;45541;-85
2021/08/29 10:48:50;;;;;;;;;5.00;5.00;;;;;21.46;52.14;101864.97;5062316;28;45394;-81
2021/08/29 10:51:18;;;;;;;;;8.00;6.50;;;;;21.58;52.55;101859.91;5043332;28;45721;-82
2021/08/29 10:53:56;;;;;;;;;8.25;7.75;;;;;21.73;51.53;101853.16;5057204;28;45293;-82
2021/08/29 10:56:32;;;;;;;;;7.75;6.25;;;;;21.86;51.62;101847.22;5057077;28;45292;-81
2021/08/29 10:59:07;;;;;;;;;11.50;9.25;;;;;21.97;51.05;101846.47;5059852;28;46314;-82
2021/08/29 11:01:38;;;;;;;;;5.00;5.00;;;;;22.00;50.74;101849.13;5062809;28;45750;-81
2021/08/29 11:04:18;;;;;;;;;7.00;7.00;;;;;22.07;50.07;101841.34;5058395;28;45494;-81
2021/08/29 11:06:52;;;;;;;;;10.75;9.00;;;;;22.19;49.61;101837.97;5057363;28;45446;-82
2021/08/29 11:09:36;;;;;;;;;6.50;5.25;;;;;22.30;49.49;101845.16;5039085;28;45613;-82
2021/08/29 11:12:03;;;;;;;;;7.75;7.75;;;;;22.31;49.62;101845.16;5060210;28;45718;-82
2021/08/29 11:14:40;;;;;;;;;6.25;6.25;;;;;22.25;49.45;101842.44;5040484;28;45384;-81
2021/08/29 11:17:17;;;;;;;;;6.00;6.00;;;;;22.23;49.14;101841.56;5058468;28;45330;-81
2021/08/29 11:19:48;;;;;;;;;9.00;6.75;;;;;22.25;49.61;101830.16;5058655;28;45384;-81
2021/08/29 11:22:27;;;;;;;;;10.50;10.00;;;;;22.31;49.74;101839.91;5057355;28;45367;-82
2021/08/29 11:25:16;;;;;;;;;8.25;8.25;;;;;22.29;49.41;101843.38;5057720;28;45439;-83